Time;durP1;ratioP1;P1;durP2;ratioP2;P2;SDS_P1;SDS_P2;PMS_P1;PMS_P2;Temp;Humidity;BMP_temperature;BMP_pressure;BME280_temperature;BME280_humidity;BME280_pressure;Samples;Min_cycle;Max_cycle;Signal;HPM_P1;HPM_P2
2023/01/30 00:00:59;;;;;;;33.85;20.58;;;;;;;5.93;77.77;102163.25;5075465;28;20063;-67
2023/01/30 00:03:28;;;;;;;32.75;19.88;;;;;;;6.33;76.67;102159.25;5075866;28;20048;-66
2023/01/30 00:05:55;;;;;;;30.90;19.67;;;;;;;6.23;76.01;102170.03;5073899;28;20048;-66
2023/01/30 00:08:22;;;;;;;31.40;20.02;;;;;;;6.23;76.19;102183.72;5075680;28;20538;-67
2023/01/30 00:10:50;;;;;;;29.05;19.55;;;;;;;6.05;76.89;102177.66;5075315;28;20045;-66
2023/01/30 00:13:17;;;;;;;32.83;20.02;;;;;;;5.91;77.78;102187.25;5075609;28;20052;-66
2023/01/30 00:15:44;;;;;;;34.35;19.90;;;;;;;5.92;78.11;102170.59;5073706;28;20059;-67
2023/01/30 00:18:12;;;;;;;29.38;19.63;;;;;;;5.87;78.39;102167.78;5074346;28;20051;-66
2023/01/30 00:20:39;;;;;;;30.85;20.13;;;;;;;5.90;78.01;102161.81;5074923;28;20048;-67
2023/01/30 00:23:06;;;;;;;29.75;19.83;;;;;;;5.99;77.72;102160.34;5075691;28;20388;-67
2023/01/30 00:25:33;;;;;;;31.38;19.58;;;;;;;6.14;77.63;102157.84;5074938;28;20048;-67
2023/01/30 00:28:01;;;;;;;29.50;19.45;;;;;;;6.01;77.30;102151.88;5075378;28;20053;-65
2023/01/30 00:30:29;;;;;;;30.88;19.45;;;;;;;5.92;77.52;102142.44;5074623;28;20107;-66
2023/01/30 00:32:58;;;;;;;28.95;19.05;;;;;;;6.15;76.96;102137.63;5074097;28;20079;-66
2023/01/30 00:35:27;;;;;;;28.00;18.88;;;;;;;6.06;76.47;102132.81;5073394;28;20630;-67
2023/01/30 00:37:56;;;;;;;29.48;19.70;;;;;;;6.25;76.78;102126.84;5057489;28;20060;-67
2023/01/30 00:40:25;;;;;;;31.50;19.17;;;;;;;6.23;76.73;102123.53;5075003;28;20361;-66
2023/01/30 00:48:30;;;;;;;28.60;18.65;;;;;;;6.01;77.04;102119.06;5059978;28;20053;-66
2023/01/30 00:50:58;;;;;;;30.52;19.00;;;;;;;6.16;76.40;102111.09;5056600;28;20118;-67
2023/01/30 00:53:26;;;;;;;26.85;18.77;;;;;;;6.27;75.84;102107.44;5056444;28;20067;-67
2023/01/30 00:55:55;;;;;;;29.38;19.73;;;;;;;6.07;76.06;102107.09;5074974;28;20064;-67
2023/01/30 00:58:23;;;;;;;28.80;18.67;;;;;;;6.01;76.56;102095.28;5074573;28;20049;-67
2023/01/30 01:00:51;;;;;;;29.83;20.05;;;;;;;6.10;76.65;102088.28;5072987;28;20043;-67
2023/01/30 01:03:18;;;;;;;28.23;18.75;;;;;;;6.28;75.70;102084.44;5074078;28;20056;-67
2023/01/30 01:05:46;;;;;;;27.00;18.10;;;;;;;6.28;75.87;102089.94;5056689;28;20076;-70
2023/01/30 01:08:14;;;;;;;28.75;18.67;;;;;;;6.27;75.39;102078.19;5075462;28;20048;-68
2023/01/30 01:10:41;;;;;;;31.27;19.10;;;;;;;6.21;75.67;102089.28;5074153;28;20048;-70
2023/01/30 01:13:09;;;;;;;26.85;18.60;;;;;;;6.14;75.88;102081.25;5075014;28;20045;-70
2023/01/30 01:15:37;;;;;;;26.63;17.80;;;;;;;6.19;76.10;102081.31;5073087;28;20047;-68
2023/01/30 01:18:05;;;;;;;29.23;20.27;;;;;;;5.86;76.67;102078.63;5073693;28;20053;-69
2023/01/30 01:20:32;;;;;;;27.27;17.70;;;;;;;5.92;77.05;102074.91;5072974;28;20048;-70
2023/01/30 01:22:59;;;;;;;26.08;17.63;;;;;;;6.04;76.15;102075.63;5077178;28;20590;-69
2023/01/30 01:25:27;;;;;;;27.80;17.98;;;;;;;6.06;76.85;102067.16;5077232;28;20044;-69
2023/01/30 01:27:54;;;;;;;28.10;18.20;;;;;;;5.92;76.14;102061.22;5061004;28;20510;-69
2023/01/30 01:30:22;;;;;;;31.38;18.33;;;;;;;5.88;76.31;102057.31;5077858;28;20052;-69
2023/01/30 01:32:49;;;;;;;28.05;17.33;;;;;;;5.99;75.67;102061.06;5077208;28;20053;-69
2023/01/30 01:35:18;;;;;;;28.48;18.88;;;;;;;6.05;75.34;102054.59;5076808;28;20067;-68
2023/01/30 01:37:46;;;;;;;24.70;17.70;;;;;;;6.24;75.24;102050.50;5059784;28;20079;-69
2023/01/30 01:43:20;;;;;;;26.70;17.98;;;;;;;6.07;75.42;102061.44;5078759;28;20391;-70
2023/01/30 01:46:20;;;;;;;26.35;18.00;;;;;;;6.12;75.38;102061.53;5076609;28;20041;-69
2023/01/30 01:48:51;;;;;;;26.52;17.77;;;;;;;5.98;75.88;102053.94;5060245;28;20060;-69
2023/01/30 01:51:24;;;;;;;29.58;17.65;;;;;;;6.09;75.71;102051.09;5043517;28;20056;-70
2023/01/30 01:54:00;;;;;;;26.35;17.88;;;;;;;6.12;75.76;102055.25;5060762;28;20045;-69
2023/01/30 01:56:31;;;;;;;26.10;17.35;;;;;;;6.01;75.99;102067.09;5060655;28;20547;-69
2023/01/30 01:59:07;;;;;;;26.67;18.13;;;;;;;6.24;75.03;102045.03;5026797;28;20063;-69
2023/01/30 02:01:37;;;;;;;26.98;18.30;;;;;;;6.14;75.75;102050.31;5042880;28;20056;-70
2023/01/30 02:04:08;;;;;;;28.08;17.92;;;;;;;5.99;75.61;102058.31;5060531;28;20055;-70
2023/01/30 02:06:38;;;;;;;26.67;17.52;;;;;;;6.13;75.66;102056.88;5060467;28;20061;-70
2023/01/30 02:09:08;;;;;;;28.08;19.00;;;;;;;6.03;74.91;102052.13;5043408;28;20531;-69
2023/01/30 02:11:45;;;;;;;27.33;18.95;;;;;;;5.92;75.60;102044.81;5059679;28;20443;-70
2023/01/30 02:14:13;;;;;;;26.15;17.45;;;;;;;6.12;75.61;102058.78;5043383;28;20048;-69
2023/01/30 02:16:43;;;;;;;28.02;17.98;;;;;;;5.98;75.09;102062.13;5059867;28;20052;-69
2023/01/30 02:19:38;;;;;;;31.65;19.05;;;;;;;5.90;75.49;102055.19;5043382;28;20053;-71
2023/01/30 02:22:15;;;;;;;27.65;18.77;;;;;;;6.00;75.53;102060.78;5077301;28;20079;-69
2023/01/30 02:24:42;;;;;;;26.08;18.23;;;;;;;5.98;75.31;102049.28;5077748;28;20045;-70
2023/01/30 02:27:22;;;;;;;31.80;19.35;;;;;;;5.91;75.08;102043.16;5077411;28;20051;-70
2023/01/30 02:30:24;;;;;;;27.48;19.15;;;;;;;5.79;76.36;102038.84;5059687;28;20062;-69
2023/01/30 02:33:27;;;;;;;26.92;19.25;;;;;;;6.19;75.64;102040.28;5058517;28;20516;-69
2023/01/30 02:36:08;;;;;;;28.05;17.73;;;;;;;6.13;75.28;102035.84;5075302;28;20040;-69
2023/01/30 02:38:46;;;;;;;32.65;18.90;;;;;;;6.00;75.04;102038.09;5054865;28;20051;-70
2023/01/30 02:41:41;;;;;;;26.02;18.60;;;;;;;5.90;75.44;102035.19;5076515;28;20067;-69
2023/01/30 02:44:15;;;;;;;28.40;18.52;;;;;;;5.98;75.24;102037.53;5075773;28;20067;-69
2023/01/30 02:46:53;;;;;;;28.35;18.73;;;;;;;6.18;74.87;102041.38;5059502;28;20397;-69
2023/01/30 02:49:28;;;;;;;28.88;18.48;;;;;;;5.79;75.29;102045.13;5067139;28;20519;-69
2023/01/30 02:51:56;;;;;;;27.15;19.30;;;;;;;6.03;75.01;102037.59;5053215;28;20052;-68
2023/01/30 02:54:24;;;;;;;28.25;17.90;;;;;;;6.14;74.91;102048.41;5059104;28;20060;-69
2023/01/30 02:56:57;;;;;;;28.05;17.90;;;;;;;6.04;75.17;102056.50;5058947;28;20075;-69
2023/01/30 02:59:34;;;;;;;27.13;18.55;;;;;;;6.13;75.32;102046.78;5075552;28;20053;-69
2023/01/30 03:02:16;;;;;;;24.45;17.58;;;;;;;6.05;74.93;102049.13;5058983;28;20479;-70
2023/01/30 03:05:02;;;;;;;27.80;18.38;;;;;;;6.08;76.23;102048.59;5075767;28;20048;-69
2023/01/30 03:07:48;;;;;;;25.90;17.70;;;;;;;6.08;76.29;102049.44;5052801;28;20053;-70
2023/01/30 03:10:27;;;;;;;25.70;17.27;;;;;;;6.15;75.30;102041.06;5071862;28;20053;-69
2023/01/30 03:13:06;;;;;;;29.60;18.30;;;;;;;5.89;75.54;102047.22;5075555;28;20059;-69
2023/01/30 03:15:45;;;;;;;28.65;18.23;;;;;;;6.01;75.52;102043.31;5074823;28;20048;-68
2023/01/30 03:18:12;;;;;;;24.88;18.23;;;;;;;5.98;76.79;102043.81;5059120;28;20047;-69
2023/01/30 03:20:40;;;;;;;27.00;18.33;;;;;;;6.05;76.09;102052.66;5074863;28;20055;-69
2023/01/30 03:23:07;;;;;;;27.58;18.13;;;;;;;6.04;74.88;102050.19;5075324;28;20511;-70
2023/01/30 03:25:37;;;;;;;31.80;17.75;;;;;;;6.13;75.13;102044.03;5069758;28;20044;-69
2023/01/30 03:28:05;;;;;;;25.35;17.20;;;;;;;6.10;74.79;102047.25;5058901;28;20147;-68
2023/01/30 03:30:32;;;;;;;25.17;17.45;;;;;;;6.21;75.03;102045.50;5074482;28;20049;-68
2023/01/30 03:33:06;;;;;;;28.15;18.83;;;;;;;5.94;76.21;102050.88;5075330;28;20055;-69
2023/01/30 03:35:35;;;;;;;28.88;18.95;;;;;;;5.81;77.26;102042.97;5074267;28;20057;-69
2023/01/30 03:38:03;;;;;;;29.98;18.83;;;;;;;6.07;77.05;102045.03;5074754;28;20490;-69
2023/01/30 03:40:30;;;;;;;28.45;18.02;;;;;;;6.04;76.55;102034.59;5057957;28;20527;-68
2023/01/30 03:42:58;;;;;;;29.75;18.40;;;;;;;6.08;77.14;102032.19;5058278;28;20059;-69
2023/01/30 03:45:25;;;;;;;27.58;17.95;;;;;;;6.27;77.21;102042.59;5075015;28;20056;-69
2023/01/30 03:47:53;;;;;;;26.17;18.13;;;;;;;6.41;76.59;102043.06;5074965;28;20054;-69
2023/01/30 03:50:20;;;;;;;28.88;18.00;;;;;;;6.37;77.06;102040.00;5074495;28;20071;-69
2023/01/30 03:52:48;;;;;;;28.90;18.83;;;;;;;6.34;77.47;102032.31;5075846;28;20564;-69
2023/01/30 03:55:18;;;;;;;28.13;18.30;;;;;;;6.21;78.24;102032.66;5074178;28;20056;-69
2023/01/30 03:57:46;;;;;;;28.02;18.25;;;;;;;6.21;78.11;102015.41;5054775;28;20053;-70
2023/01/30 04:00:15;;;;;;;25.58;17.33;;;;;;;6.22;77.96;102017.09;5037909;28;20447;-70
2023/01/30 04:02:42;;;;;;;27.40;17.75;;;;;;;6.18;78.27;102014.03;5075509;28;20056;-68
2023/01/30 04:05:12;;;;;;;27.50;18.50;;;;;;;6.26;78.13;102019.03;5058108;28;20395;-68
2023/01/30 04:07:45;;;;;;;24.20;18.10;;;;;;;6.18;78.28;102010.44;5073916;28;20124;-69
2023/01/30 04:10:14;;;;;;;26.95;18.05;;;;;;;6.12;78.47;102008.75;5057234;28;20055;-69
2023/01/30 04:12:41;;;;;;;28.52;18.05;;;;;;;6.14;78.85;102007.38;5075122;28;20391;-68
2023/01/30 04:15:10;;;;;;;26.42;17.77;;;;;;;5.95;78.99;102006.03;5073932;28;20052;-69
2023/01/30 04:17:57;;;;;;;28.77;17.17;;;;;;;6.14;79.49;102004.66;5040484;28;20060;-69
2023/01/30 04:20:45;;;;;;;28.77;19.48;;;;;;;6.30;78.28;102003.78;5059075;28;20064;-69
2023/01/30 04:23:14;;;;;;;25.65;18.00;;;;;;;6.30;77.50;102008.41;5056831;28;20056;-69
2023/01/30 04:25:45;;;;;;;31.90;17.90;;;;;;;6.18;78.32;102003.09;5073457;28;20045;-68
2023/01/30 04:28:17;;;;;;;30.95;17.98;;;;;;;6.08;78.91;102010.31;5074040;28;20052;-68
2023/01/30 04:30:45;;;;;;;30.45;18.77;;;;;;;5.93;78.51;102010.91;5073419;28;20447;-68
2023/01/30 04:33:35;;;;;;;30.80;18.45;;;;;;;5.85;80.35;101994.13;5070987;28;20060;-69
2023/01/30 04:36:07;;;;;;;25.50;18.30;;;;;;;5.95;80.41;101991.53;5057121;28;20391;-69
2023/01/30 04:38:35;;;;;;;29.45;18.70;;;;;;;6.07;80.20;101982.13;5073843;28;20060;-68
2023/01/30 04:41:03;;;;;;;27.25;18.20;;;;;;;6.07;79.65;101975.81;5056872;28;20526;-69
2023/01/30 04:43:33;;;;;;;;;;;;;;;6.09;78.85;101979.13;5074259;28;20063;-68
2023/01/30 04:46:22;;;;;;;30.23;17.63;;;;;;;6.19;78.59;101976.56;5074852;28;19980;-68
2023/01/30 04:48:49;;;;;;;29.55;18.30;;;;;;;6.07;78.80;101967.63;5073881;28;20487;-69
2023/01/30 04:51:16;;;;;;;26.55;18.02;;;;;;;6.30;78.26;101975.59;5056645;28;20048;-69
2023/01/30 04:53:44;;;;;;;26.58;17.77;;;;;;;6.23;78.40;101973.06;5073514;28;20051;-68
2023/01/30 04:56:12;;;;;;;26.67;17.83;;;;;;;6.26;78.51;101972.53;5074178;28;20051;-67
2023/01/30 04:58:41;;;;;;;29.90;17.42;;;;;;;6.14;78.42;101971.84;5061825;28;20044;-68
2023/01/30 05:01:40;;;;;;;26.60;18.40;;;;;;;5.95;79.89;101984.16;5059732;28;20055;-69
2023/01/30 05:04:08;;;;;;;30.10;17.80;;;;;;;5.86;79.77;101988.38;5077691;28;20492;-69
2023/01/30 05:06:35;;;;;;;28.45;17.95;;;;;;;6.17;80.05;101978.72;5078515;28;20053;-69
2023/01/30 05:09:03;;;;;;;24.23;17.02;;;;;;;6.14;79.88;101973.72;5079069;28;20075;-69
2023/01/30 05:11:32;;;;;;;26.10;18.13;;;;;;;6.16;80.27;101974.31;5078210;28;20151;-69
2023/01/30 05:13:59;;;;;;;26.10;17.10;;;;;;;6.05;80.22;101992.50;5077521;28;20064;-69
2023/01/30 05:16:27;;;;;;;27.38;18.40;;;;;;;6.05;80.55;101983.47;5078163;28;20052;-69
2023/01/30 05:18:54;;;;;;;27.65;18.95;;;;;;;6.04;81.02;101987.28;5078835;28;20049;-69
2023/01/30 05:21:25;;;;;;;27.80;18.15;;;;;;;6.16;80.82;101971.56;5078189;28;20055;-69
2023/01/30 05:23:53;;;;;;;26.58;17.95;;;;;;;6.11;80.94;101971.50;5077392;28;20055;-69
2023/01/30 05:26:21;;;;;;;25.75;18.60;;;;;;;6.27;80.81;101984.31;5078278;28;20594;-69
2023/01/30 05:28:53;;;;;;;26.65;17.48;;;;;;;6.24;80.65;101982.09;5078497;28;20094;-70
2023/01/30 05:31:20;;;;;;;25.95;17.90;;;;;;;6.21;80.96;101971.63;5076681;28;20047;-69
2023/01/30 05:33:52;;;;;;;24.52;16.63;;;;;;;6.12;80.63;101967.72;5060697;28;20491;-69
2023/01/30 05:36:27;;;;;;;29.90;18.05;;;;;;;6.24;80.08;101966.47;5076312;28;20052;-69
2023/01/30 05:39:06;;;;;;;27.38;18.27;;;;;;;6.31;80.99;101971.78;5078390;28;20527;-69
2023/01/30 05:41:34;;;;;;;28.60;17.90;;;;;;;6.22;80.98;101974.16;5076752;28;20123;-67
2023/01/30 05:44:01;;;;;;;23.48;17.45;;;;;;;6.29;81.27;101969.31;5078272;28;20056;-66
2023/01/30 05:46:28;;;;;;;28.70;18.40;;;;;;;6.15;80.79;101964.47;5060223;28;20041;-66
2023/01/30 05:48:56;;;;;;;25.10;17.60;;;;;;;6.20;81.12;101968.09;5078291;28;20044;-66
2023/01/30 05:51:24;;;;;;;26.48;17.58;;;;;;;6.46;80.81;101950.91;5077773;28;20052;-66
2023/01/30 05:53:52;;;;;;;26.30;18.10;;;;;;;6.29;80.66;101958.38;5076862;28;20052;-69
2023/01/30 05:56:20;;;;;;;26.05;17.55;;;;;;;6.38;80.59;101966.94;5077851;28;20059;-69
2023/01/30 05:58:52;;;;;;;27.67;17.95;;;;;;;6.41;80.24;101970.00;5077891;28;20064;-66
2023/01/30 06:01:19;;;;;;;26.88;17.63;;;;;;;6.11;81.59;101964.13;5076660;28;20055;-67
2023/01/30 06:03:47;;;;;;;26.45;17.48;;;;;;;6.17;82.62;101949.44;5077850;28;20040;-67
2023/01/30 06:06:15;;;;;;;25.08;17.15;;;;;;;6.29;82.37;101952.91;5059591;28;20067;-66
2023/01/30 06:08:42;;;;;;;26.15;17.65;;;;;;;6.23;82.63;101953.91;5077652;28;20048;-66
2023/01/30 06:11:12;;;;;;;24.13;17.13;;;;;;;6.24;83.70;101961.00;5077479;28;20045;-66
2023/01/30 06:13:40;;;;;;;;;;;;;;;6.20;84.35;101953.59;5077105;28;20079;-66
2023/01/30 06:16:10;;;;;;;27.85;16.77;;;;;;;6.42;84.22;101955.22;5077183;28;19920;-70
2023/01/30 06:18:38;;;;;;;24.05;17.40;;;;;;;6.61;83.04;101944.75;5077795;28;20063;-71
2023/01/30 06:21:06;;;;;;;24.10;16.85;;;;;;;6.49;82.81;101944.06;5076139;28;20055;-70
2023/01/30 06:23:33;;;;;;;23.90;16.85;;;;;;;6.56;82.41;101934.59;5077423;28;20059;-69
2023/01/30 06:26:01;;;;;;;23.33;16.80;;;;;;;6.63;83.08;101924.25;5076996;28;20044;-68
2023/01/30 06:28:31;;;;;;;23.00;15.85;;;;;;;6.75;82.75;101924.94;5077679;28;20048;-69
2023/01/30 06:30:58;;;;;;;21.35;16.02;;;;;;;6.63;82.69;101928.91;5075565;28;20048;-69
2023/01/30 06:33:25;;;;;;;24.23;16.13;;;;;;;6.57;83.60;101933.50;5077023;28;20055;-69
2023/01/30 06:35:53;;;;;;;24.65;16.27;;;;;;;6.70;83.30;101937.75;5076888;28;20530;-70
2023/01/30 06:38:21;;;;;;;23.08;15.48;;;;;;;6.51;84.33;101941.91;5075282;28;20408;-69
2023/01/30 06:40:49;;;;;;;27.42;16.50;;;;;;;6.45;84.15;101954.72;5076749;28;20049;-68
2023/01/30 06:43:16;;;;;;;24.00;15.30;;;;;;;6.40;84.25;101954.66;5077305;28;20051;-69
2023/01/30 06:45:44;;;;;;;23.55;16.45;;;;;;;6.47;83.77;101958.03;5042619;28;20049;-70
2023/01/30 06:48:11;;;;;;;24.67;16.80;;;;;;;6.37;83.88;101968.00;5075700;28;20404;-69
2023/01/30 06:50:39;;;;;;;25.70;16.55;;;;;;;6.37;84.69;101965.28;5076476;28;20056;-70
2023/01/30 06:53:07;;;;;;;25.23;17.35;;;;;;;6.27;84.79;101968.75;5075653;28;20044;-69
2023/01/30 06:55:35;;;;;;;25.80;17.75;;;;;;;6.46;84.50;101988.38;5059122;28;20064;-70
2023/01/30 06:58:13;;;;;;;26.00;17.08;;;;;;;6.49;84.07;101988.69;5076937;28;20048;-68
2023/01/30 07:00:41;;;;;;;24.83;15.90;;;;;;;6.21;85.86;101991.63;5076281;28;20499;-70
2023/01/30 07:03:16;;;;;;;24.33;16.38;;;;;;;6.45;86.96;101995.75;5075564;28;20404;-69
2023/01/30 07:05:48;;;;;;;23.65;16.00;;;;;;;6.58;85.61;102011.81;5074903;28;20113;-69
2023/01/30 07:08:16;;;;;;;21.05;15.20;;;;;;;6.76;85.25;102000.50;5058735;28;20064;-70
2023/01/30 07:10:43;;;;;;;26.05;16.88;;;;;;;6.69;84.62;102008.09;5069565;28;20096;-68
2023/01/30 07:13:11;;;;;;;27.67;15.73;;;;;;;6.75;84.39;102008.97;5073358;28;20045;-68
2023/01/30 07:15:38;;;;;;;23.73;15.45;;;;;;;6.58;84.96;102011.81;5076207;28;20063;-69
2023/01/30 07:18:07;;;;;;;22.35;14.82;;;;;;;6.57;86.11;102014.81;5070323;28;20040;-69
2023/01/30 07:20:34;;;;;;;22.95;15.00;;;;;;;6.54;87.01;102015.28;5062385;28;20056;-69
2023/01/30 07:23:02;;;;;;;23.35;15.35;;;;;;;6.49;87.16;102023.44;5073023;28;20496;-69
2023/01/30 07:25:29;;;;;;;23.65;14.73;;;;;;;6.49;87.48;102015.22;5058118;28;20052;-69
2023/01/30 07:27:58;;;;;;;26.25;16.67;;;;;;;6.72;86.62;102021.28;5066663;28;20048;-69
2023/01/30 07:30:27;;;;;;;21.73;14.47;;;;;;;6.92;86.50;102017.13;5067983;28;20072;-69
2023/01/30 07:32:56;;;;;;;21.17;14.07;;;;;;;7.32;86.95;102023.81;5056596;28;20052;-69
2023/01/30 07:35:25;;;;;;;20.35;14.40;;;;;;;7.37;84.65;102031.28;5061410;28;20052;-71
2023/01/30 07:37:53;;;;;;;19.73;13.00;;;;;;;7.86;84.27;102038.28;5062207;28;20547;-72
2023/01/30 07:40:20;;;;;;;18.63;13.05;;;;;;;8.03;80.46;102036.19;5054717;28;20053;-70
2023/01/30 07:42:59;;;;;;;23.05;13.35;;;;;;;7.50;81.36;102039.06;5055326;28;20420;-67
2023/01/30 07:45:43;;;;;;;19.95;13.45;;;;;;;7.43;82.32;102035.69;5046592;28;20060;-68
2023/01/30 07:48:13;;;;;;;20.40;14.02;;;;;;;7.19;83.28;102032.47;5056262;28;20040;-68
2023/01/30 07:50:41;;;;;;;26.20;15.18;;;;;;;7.07;83.99;102037.28;5066831;28;20055;-67
2023/01/30 07:53:10;;;;;;;23.55;14.82;;;;;;;7.18;84.60;102035.47;5063679;28;20068;-68
2023/01/30 07:55:37;;;;;;;21.73;14.65;;;;;;;7.14;84.64;102028.84;5059597;28;20056;-68
2023/01/30 07:58:05;;;;;;;21.88;14.60;;;;;;;6.95;85.15;102027.56;5054160;28;20053;-63
2023/01/30 08:00:33;;;;;;;20.13;14.13;;;;;;;6.72;87.37;102034.16;5064897;28;20052;-67
2023/01/30 08:03:00;;;;;;;27.15;14.52;;;;;;;6.84;87.97;102037.56;5070040;28;20045;-68
2023/01/30 08:05:27;;;;;;;23.25;15.18;;;;;;;6.92;88.20;102034.38;5060072;28;20070;-67
2023/01/30 08:07:55;;;;;;;24.73;16.13;;;;;;;6.84;88.78;102027.44;5059819;28;20045;-67
2023/01/30 08:10:22;;;;;;;21.73;14.00;;;;;;;7.17;87.86;102020.94;5065624;28;20052;-67
2023/01/30 08:12:50;;;;;;;25.30;15.15;;;;;;;7.35;86.55;102030.69;5057918;28;20052;-69
2023/01/30 08:15:17;;;;;;;20.75;14.18;;;;;;;7.34;85.52;102034.53;5059469;28;20045;-67
2023/01/30 08:17:55;;;;;;;22.90;14.95;;;;;;;7.10;86.01;102030.44;5062086;28;20040;-68
2023/01/30 08:20:23;;;;;;;18.23;13.27;;;;;;;7.20;86.50;102030.56;5053987;28;20057;-68
2023/01/30 08:22:50;;;;;;;22.17;15.02;;;;;;;7.32;85.93;102039.44;5061095;28;20189;-68
2023/01/30 08:25:18;;;;;;;25.00;14.63;;;;;;;7.12;86.19;102037.34;5054278;28;20049;-68
2023/01/30 08:27:45;;;;;;;22.63;14.30;;;;;;;7.52;84.87;102036.88;5066745;28;20511;-68
2023/01/30 08:30:13;;;;;;;20.65;13.73;;;;;;;7.44;84.88;102040.09;5057570;28;20045;-68
2023/01/30 08:32:40;;;;;;;21.10;15.13;;;;;;;7.17;85.75;102044.75;5067238;28;20654;-68
2023/01/30 08:35:08;;;;;;;20.38;13.88;;;;;;;7.12;86.28;102056.50;5054815;28;20436;-68
2023/01/30 08:37:38;;;;;;;24.70;14.15;;;;;;;7.02;86.83;102048.19;5065369;28;20052;-68
2023/01/30 08:40:07;;;;;;;19.17;13.65;;;;;;;7.16;87.16;102045.88;5059767;28;20048;-69
2023/01/30 08:42:34;;;;;;;20.10;13.13;;;;;;;7.26;85.85;102049.53;5062078;28;20044;-67
2023/01/30 08:45:01;;;;;;;19.25;13.57;;;;;;;7.13;86.60;102058.16;5054202;28;20049;-69
2023/01/30 08:47:29;;;;;;;20.10;13.73;;;;;;;7.39;85.71;102060.06;5058232;28;20056;-68
2023/01/30 08:49:57;;;;;;;19.83;13.40;;;;;;;7.14;85.27;102059.00;5057087;28;20597;-69
2023/01/30 08:52:24;;;;;;;19.60;13.43;;;;;;;6.99;86.71;102056.09;5056418;28;20045;-68
2023/01/30 08:54:52;;;;;;;24.65;14.88;;;;;;;7.40;86.12;102058.16;5056532;28;20045;-67
2023/01/30 08:57:19;;;;;;;21.30;13.55;;;;;;;7.33;85.63;102052.06;5064609;28;20052;-68
2023/01/30 08:59:46;;;;;;;19.42;13.90;;;;;;;7.22;85.33;102064.81;5052324;28;20055;-68
2023/01/30 09:02:14;;;;;;;21.58;13.02;;;;;;;7.50;86.87;102066.47;5057092;28;20048;-67
2023/01/30 09:04:41;;;;;;;19.90;12.68;;;;;;;7.43;85.16;102058.47;5051787;28;20059;-68
2023/01/30 09:07:09;;;;;;;21.75;13.85;;;;;;;7.44;85.60;102062.88;5066845;28;20044;-68
2023/01/30 09:09:36;;;;;;;21.45;12.77;;;;;;;7.38;85.24;102063.06;5061838;28;20048;-68
2023/01/30 09:12:04;;;;;;;19.98;13.23;;;;;;;7.43;85.14;102068.59;5054088;28;20068;-69
2023/01/30 09:14:31;;;;;;;17.75;12.82;;;;;;;7.35;86.09;102080.03;5035656;28;20052;-68
2023/01/30 09:16:59;;;;;;;19.73;12.43;;;;;;;7.43;85.78;102080.41;5056714;28;20429;-68
2023/01/30 09:19:27;;;;;;;17.42;12.68;;;;;;;7.58;85.94;102076.97;5057692;28;20049;-68
2023/01/30 09:21:55;;;;;;;18.85;13.20;;;;;;;7.57;85.17;102084.38;5056828;28;20389;-68
2023/01/30 09:24:26;;;;;;;17.67;12.38;;;;;;;7.60;85.16;102086.59;5055639;28;20049;-69
2023/01/30 09:26:56;;;;;;;18.98;12.25;;;;;;;7.50;84.88;102077.44;5058620;28;20044;-69
2023/01/30 09:29:27;;;;;;;18.27;12.45;;;;;;;7.44;85.09;102081.22;5056549;28;20067;-68
2023/01/30 09:31:55;;;;;;;20.38;12.88;;;;;;;7.61;85.12;102076.44;5061439;28;20412;-68
2023/01/30 09:34:27;;;;;;;18.20;12.30;;;;;;;7.91;84.46;102073.97;5034341;28;20041;-67
2023/01/30 09:36:56;;;;;;;16.85;11.63;;;;;;;7.68;84.38;102080.63;5063281;28;20064;-68
2023/01/30 09:39:23;;;;;;;19.73;12.70;;;;;;;7.72;85.15;102086.44;5060454;28;20514;-67
2023/01/30 09:42:03;;;;;;;19.70;12.20;;;;;;;7.77;85.43;102083.72;5056891;28;20637;-68
2023/01/30 09:44:40;;;;;;;16.80;11.48;;;;;;;7.85;84.17;102077.75;5061525;28;20036;-68
2023/01/30 09:47:11;;;;;;;20.10;12.82;;;;;;;7.63;84.95;102064.16;5069103;28;20047;-69
2023/01/30 09:49:47;;;;;;;23.17;13.20;;;;;;;7.54;85.92;102073.09;5064398;28;20520;-68
2023/01/30 09:52:33;;;;;;;17.05;12.18;;;;;;;7.89;85.08;102082.47;5059905;28;20060;-68
2023/01/30 09:55:20;;;;;;;21.90;12.93;;;;;;;7.74;86.20;102071.34;5055364;28;20037;-69
2023/01/30 09:57:48;;;;;;;22.10;13.75;;;;;;;7.95;86.70;102078.66;5042440;28;20421;-68
2023/01/30 10:00:25;;;;;;;19.35;12.23;;;;;;;7.99;85.03;102074.31;5041515;28;20564;-68
2023/01/30 10:03:04;;;;;;;17.42;11.38;;;;;;;9.04;90.87;102073.22;5041195;28;20048;-38
2023/01/30 10:05:45;;;;;;;12.95;8.05;;;;;;;14.47;67.49;102062.28;5041375;28;20052;-37
2023/01/30 10:08:37;;;;;;;13.95;9.73;;;;;;;11.39;67.78;102076.72;5067307;28;20048;-68
2023/01/30 10:11:29;;;;;;;14.52;10.68;;;;;;;9.17;77.26;102086.44;5060682;28;20049;-68
2023/01/30 10:14:31;;;;;;;17.67;11.48;;;;;;;8.91;79.72;102085.56;5060126;28;20144;-69
2023/01/30 10:17:20;;;;;;;17.08;10.50;;;;;;;8.57;82.67;102086.22;5065837;28;20044;-68
2023/01/30 10:20:19;;;;;;;19.37;10.90;;;;;;;8.55;84.02;102091.97;5051653;28;20036;-69
2023/01/30 10:23:03;;;;;;;18.43;10.47;;;;;;;8.20;84.92;102085.41;5062675;28;20052;-69
2023/01/30 10:25:46;;;;;;;18.70;11.25;;;;;;;8.26;85.94;102093.47;5063950;28;20307;-69
2023/01/30 10:28:29;;;;;;;17.60;10.85;;;;;;;8.52;85.95;102098.03;5044478;28;20040;-69
2023/01/30 10:31:08;;;;;;;20.15;11.30;;;;;;;8.07;85.51;102105.94;5064043;28;20060;-69
2023/01/30 10:33:43;;;;;;;17.25;10.00;;;;;;;8.29;86.85;102103.06;5052467;28;20059;-69
2023/01/30 10:36:27;;;;;;;18.88;9.50;;;;;;;8.52;87.79;102100.75;5069236;28;20055;-70
2023/01/30 10:38:56;;;;;;;16.25;10.25;;;;;;;8.82;84.94;102098.16;5070462;28;20052;-69
2023/01/30 10:41:46;;;;;;;15.00;8.55;;;;;;;8.99;83.66;102095.22;5055805;28;20071;-70
2023/01/30 10:44:17;;;;;;;14.43;9.23;;;;;;;8.78;84.11;102087.97;5059889;28;20061;-70
2023/01/30 10:46:53;;;;;;;17.02;8.95;;;;;;;8.64;85.27;102084.91;5058836;28;20055;-70
2023/01/30 10:49:43;;;;;;;12.65;8.70;;;;;;;8.86;84.09;102068.22;5054768;28;20048;-69
2023/01/30 10:52:42;;;;;;;14.52;8.57;;;;;;;8.72;84.94;102075.28;5060530;28;20053;-69
2023/01/30 10:55:22;;;;;;;13.00;8.70;;;;;;;8.78;83.91;102068.75;5046264;28;20037;-69
2023/01/30 10:58:14;;;;;;;13.43;9.00;;;;;;;8.92;84.10;102073.47;5061462;28;20060;-71
2023/01/30 11:00:45;;;;;;;12.32;7.13;;;;;;;8.58;84.08;102083.19;5061787;28;20060;-69
2023/01/30 11:03:31;;;;;;;13.30;8.05;;;;;;;8.57;86.42;102084.31;5061104;28;20053;-70
2023/01/30 11:06:05;;;;;;;12.20;7.30;;;;;;;8.82;85.78;102072.63;5063246;28;20061;-70
2023/01/30 11:08:34;;;;;;;12.73;7.90;;;;;;;8.80;85.22;102074.81;5061567;28;20048;-69
2023/01/30 11:11:24;;;;;;;13.85;7.85;;;;;;;8.84;84.59;102065.75;5066370;28;20061;-65
2023/01/30 11:13:59;;;;;;;;;;;;;;;8.88;85.32;102066.03;5058627;28;20049;-67
2023/01/30 11:16:27;;;;;;;12.10;7.78;;;;;;;8.87;85.40;102073.44;5058399;28;19929;-67
2023/01/30 11:18:58;;;;;;;9.52;6.38;;;;;;;8.77;85.26;102080.84;5056881;28;20055;-68
2023/01/30 11:21:50;;;;;;;11.13;6.68;;;;;;;9.15;84.99;102072.19;5063154;28;20060;-68
2023/01/30 11:24:22;;;;;;;15.88;11.32;;;;;;;9.19;83.15;102058.72;5067254;28;20415;-68
2023/01/30 11:26:51;;;;;;;12.73;8.48;;;;;;;8.93;83.68;102061.38;5060822;28;20049;-69
2023/01/30 11:29:30;;;;;;;11.00;8.13;;;;;;;9.05;84.54;102056.47;5054993;28;20048;-68
2023/01/30 11:32:10;;;;;;;12.93;7.03;;;;;;;9.03;83.63;102055.91;5060023;28;20048;-68
2023/01/30 11:34:38;;;;;;;;;;;;;;;9.09;83.42;102049.34;5051954;28;20053;-67
2023/01/30 11:37:24;;;;;;;11.88;5.78;;;;;;;8.69;84.62;102065.69;5070440;28;19933;-68
2023/01/30 11:39:52;;;;;;;13.07;6.75;;;;;;;8.79;86.97;102067.63;5064373;28;20060;-71
2023/01/30 11:42:24;;;;;;;8.95;6.43;;;;;;;8.60;85.81;102063.72;5062733;28;20045;-69
2023/01/30 11:44:58;;;;;;;25.02;12.60;;;;;;;8.59;86.23;102054.66;5042035;28;20048;-70
2023/01/30 11:48:04;;;;;;;61.67;23.15;;;;;;;8.78;86.07;102044.03;5047626;28;20509;-70
2023/01/30 11:50:38;;;;;;;26.20;13.18;;;;;;;8.76;85.93;102040.72;5071112;28;20040;-70